Time;durP1;ratioP1;P1;durP2;ratioP2;P2;SDS_P1;SDS_P2;PMS_P1;PMS_P2;Temp;Humidity;BMP_temperature;BMP_pressure;BME280_temperature;BME280_humidity;BME280_pressure;Samples;Min_cycle;Max_cycle;Signal;HPM_P1;HPM_P2
2022/05/16 00:01:17;;;;;;;;;;;;;;;11.60;63.12;101168.06;108118;1274;73077;-86
2022/05/16 00:03:45;;;;;;;2.60;1.00;;;;;;;11.54;63.33;101166.77;107939;1275;71104;-86
2022/05/16 00:06:21;;;;;;;3.30;1.60;;;;;;;11.49;63.68;101165.63;108043;1274;72602;-85
2022/05/16 00:09:04;;;;;;;3.70;1.20;;;;;;;11.44;63.82;101161.71;107666;1274;60364;-85
2022/05/16 00:11:31;;;;;;;2.40;1.20;;;;;;;11.39;64.10;101156.23;107125;1274;62072;-87
2022/05/16 00:14:24;;;;;;;;;;;;;;;;;;;;;
2022/05/16 00:17:16;;;;;;;3.30;1.30;;;;;;;11.32;64.22;101150.84;106993;1274;71529;-87
2022/05/16 00:22:25;;;;;;;4.40;1.50;;;;;;;11.20;64.63;101142.05;106848;1272;61144;-87
2022/05/16 00:25:04;;;;;;;5.30;1.60;;;;;;;11.20;64.73;101144.45;106911;1267;61994;-87
2022/05/16 00:27:42;;;;;;;2.90;1.20;;;;;;;11.17;64.68;101143.40;106528;1274;73703;-88
2022/05/16 00:30:22;;;;;;;3.50;1.10;;;;;;;11.13;64.93;101139.77;106475;1279;70643;-85
2022/05/16 00:32:56;;;;;;;4.10;1.90;;;;;;;11.11;65.15;101146.39;106528;1279;74381;-86
2022/05/16 00:35:38;;;;;;;2.10;1.10;;;;;;;11.07;65.24;101143.40;106410;1279;60735;-86
2022/05/16 00:38:08;;;;;;;2.50;1.20;;;;;;;11.04;65.53;101145.39;106513;1279;60027;-85
2022/05/16 00:41:09;;;;;;;2.70;1.00;;;;;;;11.00;65.66;101141.67;106453;1279;74498;-86
2022/05/16 00:44:14;;;;;;;2.80;1.40;;;;;;;10.98;65.77;101139.33;106764;1279;71134;-87
2022/05/16 00:47:06;;;;;;;2.90;1.10;;;;;;;10.92;66.02;101129.48;107011;1279;74261;-90
2022/05/16 00:49:42;;;;;;;3.10;1.40;;;;;;;10.92;66.09;101134.08;107185;1277;59496;-87
2022/05/16 00:52:24;;;;;;;5.60;1.30;;;;;;;10.90;66.13;101131.61;107071;1279;60717;-87
2022/05/16 00:55:06;;;;;;;3.00;1.10;;;;;;;10.89;66.21;101127.88;107228;1279;73979;-86
2022/05/16 00:57:38;;;;;;;3.40;1.30;;;;;;;10.87;66.23;101122.20;106986;1279;71430;-86
2022/05/16 01:00:08;;;;;;;1.70;1.00;;;;;;;10.85;66.27;101122.64;106997;1279;73730;-86
2022/05/16 01:05:56;;;;;;;2.50;1.10;;;;;;;10.78;66.51;101113.58;107288;1279;59283;-86
2022/05/16 01:08:32;;;;;;;2.30;1.20;;;;;;;10.76;66.63;101106.45;107179;1278;73533;-87
2022/05/16 01:11:23;;;;;;;3.60;1.30;;;;;;;10.73;66.96;101105.33;107202;1278;72515;-86
2022/05/16 01:14:09;;;;;;;;;;;;;;;;;;;;;
2022/05/16 01:16:37;;;;;;;2.20;1.20;;;;;;;10.68;67.45;101100.73;107199;1273;60447;-85
2022/05/16 01:19:33;;;;;;;4.40;1.30;;;;;;;10.66;67.78;101099.61;107351;1279;64017;-86
2022/05/16 01:22:16;;;;;;;3.40;1.30;;;;;;;10.65;67.78;101094.41;107737;1266;73016;-85
2022/05/16 01:24:49;;;;;;;3.20;1.20;;;;;;;10.61;67.91;101092.95;107517;1267;72196;-87
2022/05/16 01:27:25;;;;;;;1.30;0.60;;;;;;;10.60;68.22;101087.48;107718;1265;74412;-87
2022/05/16 01:29:54;;;;;;;2.80;1.40;;;;;;;10.58;68.08;101091.73;107569;1274;60617;-86
2022/05/16 01:32:42;;;;;;;2.00;1.30;;;;;;;10.56;68.00;101086.67;107629;1274;60600;-86
2022/05/16 01:35:12;;;;;;;2.20;1.00;;;;;;;10.52;68.34;101083.02;107402;1274;75282;-85
2022/05/16 01:40:34;;;;;;;2.90;1.60;;;;;;;10.44;68.58;101073.44;107745;1273;72783;-85
2022/05/16 01:43:15;;;;;;;2.30;1.20;;;;;;;10.41;68.46;101075.33;107551;1274;61915;-85
2022/05/16 01:46:10;;;;;;;2.20;1.10;;;;;;;10.37;68.74;101075.98;107502;1273;60549;-87
2022/05/16 01:48:56;;;;;;;;;;;;;;;;;;;;;
2022/05/16 01:51:27;;;;;;;2.10;0.90;;;;;;;10.26;69.05;101081.05;107781;1275;71321;-86
2022/05/16 01:53:57;;;;;;;5.10;1.60;;;;;;;10.21;69.01;101081.86;107749;1274;74494;-85
2022/05/16 01:56:24;;;;;;;2.90;1.00;;;;;;;10.17;68.91;101084.27;107809;1274;60681;-86
2022/05/16 01:59:12;;;;;;;3.30;1.00;;;;;;;10.12;69.31;101086.23;107892;1273;60582;-87
2022/05/16 02:02:00;;;;;;;3.00;1.10;;;;;;;10.06;69.74;101079.55;107695;1274;75577;-83
2022/05/16 02:04:34;;;;;;;2.20;1.10;;;;;;;10.02;69.48;101073.48;107458;1274;71435;-84
2022/05/16 02:07:04;;;;;;;1.80;1.10;;;;;;;9.96;69.98;101071.97;107264;1277;73027;-85
2022/05/16 02:09:36;;;;;;;2.80;1.40;;;;;;;9.93;70.13;101072.15;107006;1274;60717;-88
2022/05/16 02:12:30;;;;;;;3.20;1.40;;;;;;;9.88;70.17;101073.00;107554;1274;60306;-86
2022/05/16 02:15:11;;;;;;;2.70;1.00;;;;;;;9.83;70.35;101070.87;108099;1274;74270;-84
2022/05/16 02:18:10;;;;;;;;;;;;;;;;;;;;;
2022/05/16 02:27:09;;;;;;;;;;;;;;;;;;;;;
2022/05/16 02:29:47;;;;;;;;;;;;;;;;;;;;;
2022/05/16 02:32:16;;;;;;;3.70;1.00;;;;;;;9.55;71.56;101040.03;106974;1277;70064;-85
2022/05/16 02:34:44;;;;;;;2.70;0.90;;;;;;;9.53;71.73;101034.79;106692;1277;72861;-85
2022/05/16 02:37:12;;;;;;;3.30;1.40;;;;;;;9.50;71.64;101034.19;106765;1277;62272;-87
2022/05/16 02:39:44;;;;;;;3.30;1.30;;;;;;;9.45;71.90;101028.68;107112;1277;60579;-86
2022/05/16 02:42:17;;;;;;;4.40;1.20;;;;;;;9.44;72.00;101025.73;106776;1275;75601;-85
2022/05/16 02:44:56;;;;;;;;;;;;;;;;;;;;;
2022/05/16 02:47:52;;;;;;;1.50;1.00;;;;;;;9.35;72.03;101036.55;106799;1277;72262;-88
2022/05/16 02:50:23;;;;;;;2.20;1.10;;;;;;;9.32;72.23;101038.72;106497;1276;64076;-86
2022/05/16 02:52:58;;;;;;;2.10;0.90;;;;;;;9.28;72.20;101037.15;106953;1276;61617;-86
2022/05/16 02:55:25;;;;;;;;;;;;;;;9.25;72.48;101041.52;106762;1277;75475;-88
2022/05/16 02:57:57;;;;;;;2.50;0.90;;;;;;;9.22;72.72;101040.68;106663;1277;74785;-86
2022/05/16 03:00:31;;;;;;;5.30;1.20;;;;;;;9.18;72.90;101037.70;106574;1277;74020;-87
2022/05/16 03:03:01;;;;;;;4.60;1.50;;;;;;;9.14;73.12;101037.57;106632;1277;61188;-86
2022/05/16 03:05:33;;;;;;;5.60;1.70;;;;;;;9.11;73.33;101037.35;106805;1277;60664;-86
2022/05/16 03:08:25;;;;;;;2.30;1.40;;;;;;;9.07;73.27;101040.17;106649;1276;75115;-86
2022/05/16 03:11:04;;;;;;;4.00;1.30;;;;;;;9.05;73.25;101042.54;106721;1277;73026;-85
2022/05/16 03:13:50;;;;;;;2.70;1.60;;;;;;;9.03;73.71;101039.98;106731;1277;72884;-85
2022/05/16 03:16:20;;;;;;;2.00;1.30;;;;;;;9.00;73.79;101036.86;106794;1277;61796;-87
2022/05/16 03:18:47;;;;;;;1.80;1.00;;;;;;;8.99;74.06;101035.77;106626;1277;61332;-87
2022/05/16 03:21:23;;;;;;;1.90;0.80;;;;;;;8.95;74.57;101029.79;106994;1277;74488;-86
2022/05/16 03:23:52;;;;;;;1.80;1.00;;;;;;;8.97;74.29;101035.89;106915;1277;71090;-84
2022/05/16 03:26:35;;;;;;;3.20;1.20;;;;;;;8.96;74.42;101032.06;106591;1277;73908;-87
2022/05/16 03:29:24;;;;;;;3.00;1.20;;;;;;;8.96;74.71;101026.62;106908;1277;61598;-85
2022/05/16 03:32:23;;;;;;;2.20;1.00;;;;;;;8.97;74.81;101025.50;106658;1277;62012;-85
2022/05/16 03:34:59;;;;;;;1.80;1.00;;;;;;;8.97;75.05;101021.93;106690;1275;74068;-90
2022/05/16 03:37:48;;;;;;;3.90;1.20;;;;;;;8.98;74.62;101014.45;107642;1278;72372;-87
2022/05/16 03:40:47;;;;;;;3.00;1.30;;;;;;;9.00;74.93;101018.23;107023;1277;72916;-86
2022/05/16 03:43:33;;;;;;;4.20;1.00;;;;;;;9.01;74.98;101010.70;106809;1277;63046;-86
2022/05/16 03:46:12;;;;;;;2.70;1.20;;;;;;;9.01;75.05;101011.23;106951;1277;62065;-87
2022/05/16 03:48:39;;;;;;;2.00;1.30;;;;;;;9.03;75.23;101014.15;106750;1277;74103;-84
2022/05/16 03:51:11;;;;;;;4.50;1.30;;;;;;;9.04;74.95;101012.08;106597;1277;71363;-87
2022/05/16 03:53:46;;;;;;;2.50;1.20;;;;;;;9.03;75.23;101001.13;106770;1277;73372;-86
2022/05/16 03:56:38;;;;;;;1.70;1.10;;;;;;;9.08;75.16;101007.23;106754;1276;62456;-85
2022/05/16 03:59:06;;;;;;;2.90;1.30;;;;;;;9.10;74.97;101001.65;107094;1276;61167;-86
2022/05/16 04:02:05;;;;;;;2.60;0.90;;;;;;;9.11;75.27;101003.08;106576;1277;74083;-86
2022/05/16 04:04:46;;;;;;;3.40;1.30;;;;;;;9.14;75.21;101006.54;106883;1276;72464;-86
2022/05/16 04:07:18;;;;;;;2.70;1.30;;;;;;;9.16;75.43;101003.67;106803;1276;72655;-89
2022/05/16 04:10:14;;;;;;;1.60;1.30;;;;;;;9.19;75.20;101003.15;106715;1277;61403;-87
2022/05/16 04:13:00;;;;;;;;;;;;;;;9.23;75.18;100994.11;106712;1276;60930;-86
2022/05/16 04:15:39;;;;;;;2.70;1.00;;;;;;;9.26;75.24;100992.86;106582;1277;75614;-85
2022/05/16 04:18:27;;;;;;;2.60;1.20;;;;;;;9.30;75.16;100992.61;106424;1276;73387;-85
2022/05/16 04:21:00;;;;;;;4.50;1.50;;;;;;;9.34;75.18;100996.08;106599;1277;74350;-87
2022/05/16 04:23:43;;;;;;;;;;;;;;;;;;;;;
2022/05/16 04:26:42;;;;;;;3.70;1.70;;;;;;;9.46;75.30;100986.98;106704;1274;61574;-85
2022/05/16 04:29:29;;;;;;;3.80;1.40;;;;;;;9.54;75.49;100990.31;106500;1275;74297;-84
2022/05/16 04:32:09;;;;;;;;;;;;;;;;;;;;;
2022/05/16 04:34:52;;;;;;;4.40;1.40;;;;;;;9.72;75.58;100989.11;106575;1274;72932;-85
2022/05/16 04:37:31;;;;;;;;;;;;;;;;;;;;;
2022/05/16 04:40:04;;;;;;;4.00;1.30;;;;;;;9.94;75.08;100980.83;106773;1274;60437;-85
2022/05/16 04:42:43;;;;;;;2.20;1.20;;;;;;;10.06;74.72;100983.83;106717;1274;74054;-91
2022/05/16 04:45:16;;;;;;;2.20;1.50;;;;;;;10.17;74.77;100989.46;106550;1276;73162;-83
2022/05/16 04:48:25;;;;;;;2.20;1.10;;;;;;;10.28;74.30;100992.37;106735;1274;74608;-86
2022/05/16 04:51:52;;;;;;;3.70;2.00;;;;;;;10.42;74.28;100995.30;106620;1274;61971;-86
2022/05/16 04:55:05;;;;;;;6.60;1.60;;;;;;;10.57;73.79;100995.82;106654;1274;61525;-87
2022/05/16 04:57:56;;;;;;;3.90;1.20;;;;;;;10.69;73.33;100987.94;106416;1274;74562;-86
2022/05/16 05:01:14;;;;;;;2.90;1.60;;;;;;;10.82;73.26;100981.42;106632;1274;71836;-86
2022/05/16 05:04:30;;;;;;;;;;;;;;;;;;;;;
2022/05/16 05:07:35;;;;;;;4.90;1.60;;;;;;;11.12;72.34;100977.98;106549;1274;62033;-88
2022/05/16 05:16:30;;;;;;;5.70;1.60;;;;;;;11.56;71.01;100982.00;106978;1274;71308;-85
2022/05/16 05:19:11;;;;;;;2.80;1.40;;;;;;;11.69;70.60;100984.77;106974;1274;72479;-85
2022/05/16 05:21:41;;;;;;;3.50;1.30;;;;;;;11.80;70.11;100992.19;106780;1274;62197;-87
2022/05/16 05:24:13;;;;;;;4.50;1.40;;;;;;;11.85;69.97;100983.11;106510;1274;60359;-87
2022/05/16 05:26:58;;;;;;;4.80;1.60;;;;;;;11.95;69.88;100983.38;106570;1275;73889;-89
2022/05/16 05:29:52;;;;;;;2.60;1.40;;;;;;;12.01;69.37;100984.15;106479;1274;71461;-87
2022/05/16 05:32:31;;;;;;;4.20;1.40;;;;;;;12.11;69.21;100985.64;106688;1274;71707;-85
2022/05/16 05:34:58;;;;;;;3.60;1.30;;;;;;;12.22;68.75;100990.23;106588;1274;62246;-86
2022/05/16 05:37:42;;;;;;;3.30;1.30;;;;;;;12.33;68.58;100987.39;106632;1274;60962;-88
2022/05/16 05:40:16;;;;;;;4.30;1.40;;;;;;;12.46;68.40;100986.17;106614;1274;75580;-86
2022/05/16 05:43:01;;;;;;;4.50;1.40;;;;;;;12.57;67.81;100987.88;106658;1274;71313;-88
2022/05/16 05:45:36;;;;;;;3.20;1.40;;;;;;;12.70;67.54;100988.17;106550;1274;71358;-88
2022/05/16 05:48:05;;;;;;;2.40;1.40;;;;;;;12.80;67.32;100987.48;107015;1274;63277;-89
2022/05/16 05:50:38;;;;;;;2.40;1.70;;;;;;;12.94;67.04;100989.77;106743;1274;60553;-88
2022/05/16 05:53:05;;;;;;;4.00;1.90;;;;;;;13.08;66.67;100991.14;106458;1275;74282;-89
2022/05/16 05:55:41;;;;;;;4.00;1.30;;;;;;;13.21;66.26;100988.09;106205;1277;71421;-91
2022/05/16 05:58:20;;;;;;;4.40;1.60;;;;;;;13.34;65.85;100985.33;106224;1276;76227;-86
2022/05/16 06:00:47;;;;;;;3.40;1.30;;;;;;;13.48;65.56;100983.13;106310;1274;62748;-84
2022/05/16 06:03:18;;;;;;;5.70;1.70;;;;;;;13.62;65.18;100982.30;106492;1274;61342;-84
2022/05/16 06:05:44;;;;;;;4.70;1.90;;;;;;;13.78;64.49;100985.18;106460;1274;74221;-83
2022/05/16 06:08:12;;;;;;;3.40;1.50;;;;;;;13.92;64.04;100990.78;106429;1274;70281;-85
2022/05/16 06:10:39;;;;;;;4.10;1.50;;;;;;;14.04;63.47;100989.70;106290;1274;72951;-85
2022/05/16 06:13:28;;;;;;;3.60;1.60;;;;;;;14.17;63.48;100989.58;106333;1274;62610;-84
2022/05/16 06:15:55;;;;;;;3.00;1.60;;;;;;;14.34;63.15;100991.55;106161;1274;61548;-86
2022/05/16 06:18:22;;;;;;;6.00;1.60;;;;;;;14.46;62.29;100991.60;106306;1274;75210;-84
2022/05/16 06:20:51;;;;;;;3.20;1.40;;;;;;;14.57;61.71;100995.80;106239;1275;71450;-87
2022/05/16 06:23:21;;;;;;;2.30;1.30;;;;;;;14.68;61.56;100992.99;106334;1274;72952;-83
2022/05/16 06:25:48;;;;;;;2.60;1.50;;;;;;;14.77;60.70;100994.39;106099;1274;60941;-84
2022/05/16 06:28:28;;;;;;;3.90;2.30;;;;;;;14.86;60.27;100986.08;106386;1276;62710;-84
2022/05/16 06:30:58;;;;;;;10.10;6.60;;;;;;;14.95;59.97;100980.59;106482;1274;73828;-85
2022/05/16 06:33:31;;;;;;;4.00;1.50;;;;;;;15.07;59.95;100983.38;106388;1274;72252;-84
2022/05/16 06:35:59;;;;;;;6.10;1.90;;;;;;;15.18;59.49;100983.63;106414;1274;74288;-87
2022/05/16 06:38:30;;;;;;;8.20;4.60;;;;;;;15.30;59.48;100984.38;106586;1274;61744;-85
2022/05/16 06:40:58;;;;;;;4.50;1.50;;;;;;;15.43;59.10;100982.63;106623;1274;61250;-85
2022/05/16 06:43:27;;;;;;;2.50;1.20;;;;;;;15.56;58.99;100987.73;106743;1274;73112;-84
2022/05/16 06:45:57;;;;;;;6.50;2.00;;;;;;;15.66;58.71;100986.98;106799;1274;71336;-87
2022/05/16 06:48:30;;;;;;;4.40;2.00;;;;;;;15.76;58.35;100987.70;106835;1274;73895;-85
2022/05/16 06:51:04;;;;;;;4.70;1.90;;;;;;;15.88;58.43;100983.23;106577;1275;61900;-87
2022/05/16 06:53:31;;;;;;;3.10;1.60;;;;;;;16.03;58.09;100977.02;106710;1274;60724;-85
2022/05/16 06:56:00;;;;;;;7.20;3.10;;;;;;;16.17;57.71;100977.72;106365;1274;74200;-83
2022/05/16 06:58:27;;;;;;;19.40;9.20;;;;;;;16.34;57.16;100974.89;106316;1275;72454;-85
2022/05/16 07:00:55;;;;;;;7.30;2.20;;;;;;;16.48;56.70;100975.41;106473;1274;73287;-88
2022/05/16 07:03:22;;;;;;;4.00;1.60;;;;;;;16.65;56.75;100975.29;106584;1274;60421;-83
2022/05/16 07:05:51;;;;;;;4.60;1.80;;;;;;;16.83;55.86;100968.35;106448;1274;60561;-83
2022/05/16 07:08:20;;;;;;;4.80;1.70;;;;;;;16.99;55.73;100968.52;106995;1274;75180;-84
2022/05/16 07:10:48;;;;;;;4.50;1.70;;;;;;;17.17;55.54;100967.73;107559;1274;71358;-84
2022/05/16 07:13:21;;;;;;;6.80;2.90;;;;;;;17.27;54.94;100962.57;107918;1274;73006;-84
2022/05/16 07:15:48;;;;;;;5.60;2.00;;;;;;;17.28;54.10;100961.52;107200;1274;60818;-86
2022/05/16 07:18:20;;;;;;;2.50;1.20;;;;;;;17.26;54.03;100961.41;106957;1275;61039;-84
2022/05/16 07:20:47;;;;;;;3.80;1.50;;;;;;;17.35;54.55;100954.33;106766;1274;75081;-87
2022/05/16 07:23:14;;;;;;;6.70;1.80;;;;;;;17.46;54.27;100948.57;106765;1275;71608;-83
2022/05/16 07:28:27;;;;;;;12.40;6.90;;;;;;;17.86;53.59;100935.35;106912;1274;60447;-83
2022/05/16 07:30:53;;;;;;;2.50;1.30;;;;;;;18.09;53.36;100933.59;106684;1274;60297;-82
2022/05/16 07:33:20;;;;;;;3.10;1.40;;;;;;;18.29;52.50;100931.44;106882;1274;75439;-83
2022/05/16 07:35:50;;;;;;;4.90;2.20;;;;;;;18.47;51.53;100928.95;106455;1275;71287;-83
2022/05/16 07:38:19;;;;;;;4.30;1.60;;;;;;;18.68;50.25;100923.98;106823;1274;72764;-83
2022/05/16 07:40:46;;;;;;;5.90;1.50;;;;;;;18.80;48.46;100924.42;106641;1274;61257;-83
2022/05/16 07:43:13;;;;;;;3.90;1.50;;;;;;;18.90;48.62;100931.63;106088;1274;60902;-82
2022/05/16 07:45:40;;;;;;;4.70;1.30;;;;;;;19.08;49.46;100931.84;106360;1274;74067;-84
2022/05/16 07:48:08;;;;;;;3.70;1.20;;;;;;;19.28;48.48;100928.78;106934;1274;71483;-85
2022/05/16 07:50:36;;;;;;;3.20;1.30;;;;;;;19.37;48.31;100923.08;107091;1274;74322;-84
2022/05/16 07:53:05;;;;;;;3.70;1.30;;;;;;;19.42;48.03;100924.65;108491;1274;60819;-82
2022/05/16 07:55:31;;;;;;;5.30;1.30;;;;;;;19.44;47.50;100923.68;108418;1276;60613;-83
2022/05/16 07:57:59;;;;;;;4.20;1.30;;;;;;;19.51;48.05;100927.39;108524;1274;74132;-85
2022/05/16 08:00:25;;;;;;;20.60;10.70;;;;;;;19.60;46.90;100925.36;108328;1274;71603;-85
2022/05/16 08:02:52;;;;;;;3.10;1.30;;;;;;;19.75;46.76;100932.55;108200;1274;72917;-85
2022/05/16 08:05:20;;;;;;;6.00;3.20;;;;;;;19.88;46.46;100927.28;106605;1274;60610;-85
2022/05/16 08:10:39;;;;;;;6.30;1.40;;;;;;;20.15;46.31;100922.23;106321;1274;75290;-88
2022/05/16 08:13:14;;;;;;;3.00;1.40;;;;;;;20.26;45.78;100916.88;107585;1264;72497;31
2022/05/16 08:15:42;;;;;;;4.10;1.40;;;;;;;20.44;45.43;100908.40;107275;1264;72783;-87
2022/05/16 08:18:12;;;;;;;8.10;1.50;;;;;;;20.60;45.24;100904.62;107597;1275;61680;-88
2022/05/16 08:20:45;;;;;;;5.00;1.40;;;;;;;20.70;44.52;100908.94;106480;1276;60589;-87
2022/05/16 08:23:17;;;;;;;3.50;1.00;;;;;;;20.79;44.16;100901.36;106153;1276;75254;-86
2022/05/16 08:25:45;;;;;;;6.30;1.70;;;;;;;20.89;44.67;100899.86;106242;1276;71470;-87
2022/05/16 08:28:13;;;;;;;3.30;1.40;;;;;;;21.02;44.48;100897.89;106452;1276;72796;-89
2022/05/16 08:30:43;;;;;;;6.80;1.20;;;;;;;21.10;44.30;100898.55;106139;1277;60752;-89
2022/05/16 08:33:19;;;;;;;3.50;1.10;;;;;;;21.18;43.48;100895.83;106050;1277;62073;-88
2022/05/16 08:42:02;;;;;;;6.20;1.40;;;;;;;21.58;42.98;100907.17;106396;1276;72630;-89
2022/05/16 08:44:51;;;;;;;4.20;1.40;;;;;;;21.71;42.31;100909.66;106498;1276;60951;-88
2022/05/16 08:47:55;;;;;;;4.30;1.20;;;;;;;21.71;41.76;100908.27;106375;1276;61800;-88
2022/05/16 08:50:35;;;;;;;3.20;1.60;;;;;;;21.65;41.90;100910.25;106308;1276;73894;-88
2022/05/16 08:53:14;;;;;;;4.10;1.20;;;;;;;21.64;42.04;100903.60;106527;1277;70430;-88
2022/05/16 08:56:03;;;;;;;9.40;4.90;;;;;;;21.78;43.02;100904.16;106466;1277;72956;-88
2022/05/16 08:59:09;;;;;;;4.30;1.50;;;;;;;22.00;42.47;100904.04;106300;1275;61320;-88
2022/05/16 09:05:02;;;;;;;3.50;1.30;;;;;;;22.37;41.09;100893.21;105840;1275;75968;-88
2022/05/16 09:07:56;;;;;;;5.50;1.80;;;;;;;22.51;41.27;100894.02;106718;1276;74216;-91
2022/05/16 09:11:00;;;;;;;5.20;1.00;;;;;;;22.68;41.39;100895.31;106384;1276;72803;-88
2022/05/16 09:14:16;;;;;;;5.00;1.70;;;;;;;22.82;40.70;100889.33;106574;1276;60619;-89
2022/05/16 09:17:12;;;;;;;2.50;1.40;;;;;;;23.00;40.05;100889.60;106429;1276;63455;-89
2022/05/16 09:19:39;;;;;;;7.50;3.90;;;;;;;23.04;39.59;100884.86;106319;1276;75145;-88
2022/05/16 09:22:18;;;;;;;3.70;1.50;;;;;;;23.13;40.11;100883.33;106335;1276;72669;-88
2022/05/16 09:24:52;;;;;;;3.30;1.20;;;;;;;23.31;40.08;100887.09;106329;1276;72540;-88
2022/05/16 09:30:29;;;;;;;2.40;1.30;;;;;;;23.63;39.23;100876.94;106368;1276;62127;-88
2022/05/16 09:33:12;;;;;;;5.50;1.60;;;;;;;23.83;39.56;100884.02;106249;1276;76253;-88
2022/05/16 09:36:19;;;;;;;6.10;1.70;;;;;;;23.99;38.37;100881.96;106089;1276;69887;-88
2022/05/16 09:42:41;;;;;;;7.90;2.00;;;;;;;24.34;38.75;100876.02;106279;1271;61818;-87
2022/05/16 09:45:03;;;;;;;3.30;1.00;;;;;;;24.52;37.78;100869.85;106748;1267;60510;-88
2022/05/16 09:47:32;;;;;;;3.70;1.30;;;;;;;24.64;38.18;100870.55;106387;1274;74614;-89
2022/05/16 09:50:02;;;;;;;2.50;1.30;;;;;;;24.78;38.07;100863.18;106406;1274;72584;-89
2022/05/16 09:52:35;;;;;;;4.00;1.60;;;;;;;24.94;38.04;100870.66;106258;1274;72638;-89
2022/05/16 09:55:11;;;;;;;4.80;1.40;;;;;;;25.12;37.81;100870.12;106241;1274;60476;-88
2022/05/16 09:57:52;;;;;;;4.00;1.50;;;;;;;25.26;37.00;100866.80;106161;1274;60541;-88
2022/05/16 10:00:32;;;;;;;8.10;1.70;;;;;;;25.33;36.60;100869.70;106235;1273;74117;-88
2022/05/16 10:03:22;;;;;;;4.10;1.50;;;;;;;25.38;36.56;100868.17;106319;1273;70861;-89
2022/05/16 10:05:52;;;;;;;6.90;1.80;;;;;;;25.45;36.91;100870.96;106374;1273;72066;-88
2022/05/16 10:11:15;;;;;;;4.90;1.80;;;;;;;25.54;36.89;100872.53;106291;1274;60428;-88
2022/05/16 10:13:55;;;;;;;5.80;1.10;;;;;;;25.67;36.70;100877.82;106282;1276;74248;-88
2022/05/16 10:16:29;;;;;;;6.40;1.60;;;;;;;25.72;36.32;100875.54;106224;1277;72453;-88
2022/05/16 10:19:07;;;;;;;4.50;2.40;;;;;;;25.68;36.66;100876.73;106420;1276;72759;-88
2022/05/16 10:21:56;;;;;;;3.10;2.00;;;;;;;25.71;36.56;100874.83;106561;1276;60831;-88
2022/05/16 10:24:45;;;;;;;11.50;8.10;;;;;;;25.82;36.79;100870.54;107812;1274;60757;-88
2022/05/16 10:27:34;;;;;;;6.00;1.70;;;;;;;25.96;36.12;100869.14;107704;1274;72890;-88
2022/05/16 10:30:21;;;;;;;3.40;1.60;;;;;;;26.10;36.35;100868.23;108129;1275;71659;-90
2022/05/16 10:36:19;;;;;;;3.00;1.50;;;;;;;26.55;35.06;100860.64;107613;1277;61371;-89
2022/05/16 10:39:08;;;;;;;5.60;1.80;;;;;;;26.63;34.88;100861.00;106564;1276;60872;-89
2022/05/16 10:41:51;;;;;;;4.70;1.70;;;;;;;26.67;34.60;100855.55;106393;1276;74672;-89
2022/05/16 10:44:24;;;;;;;5.10;1.30;;;;;;;26.78;34.63;100850.91;106371;1276;71679;-89
2022/05/16 10:47:21;;;;;;;5.30;1.50;;;;;;;26.96;34.80;100842.75;106324;1274;74261;-89
2022/05/16 10:50:03;;;;;;;4.40;1.50;;;;;;;27.05;33.73;100839.70;106508;1276;61712;-88
2022/05/16 10:52:51;;;;;;;4.30;1.40;;;;;;;27.18;34.08;100837.94;106758;1276;60334;-88
2022/05/16 10:55:19;;;;;;;6.40;2.10;;;;;;;27.34;33.47;100837.30;106297;1276;74149;-89
2022/05/16 10:58:32;;;;;;;5.90;3.10;;;;;;;27.49;33.72;100835.01;106180;1276;73810;-89
2022/05/16 11:01:11;;;;;;;8.70;4.10;;;;;;;27.69;33.83;100832.55;106059;1274;73703;-88
2022/05/16 11:04:00;;;;;;;5.40;1.90;;;;;;;27.79;33.20;100834.59;106550;1265;60693;-87
2022/05/16 11:07:08;;;;;;;4.00;1.60;;;;;;;27.89;32.74;100838.44;106562;1274;60451;-88
2022/05/16 11:10:21;;;;;;;3.60;1.40;;;;;;;27.93;32.87;100833.98;108339;1274;73813;-89
2022/05/16 11:13:26;;;;;;;5.30;1.90;;;;;;;27.91;32.26;100830.41;106424;1274;72752;-88
2022/05/16 11:16:11;;;;;;;6.10;1.60;;;;;;;27.97;32.84;100830.13;106996;1274;74959;-89
2022/05/16 11:18:46;;;;;;;9.00;2.10;;;;;;;28.04;32.65;100832.55;106623;1274;60741;-88
2022/05/16 11:21:41;;;;;;;3.70;1.40;;;;;;;28.12;32.74;100831.48;106779;1276;61377;-88
2022/05/16 11:24:41;;;;;;;4.20;1.40;;;;;;;28.21;32.82;100831.67;106615;1274;74144;-88
2022/05/16 11:27:25;;;;;;;4.00;1.60;;;;;;;28.31;32.21;100831.06;106472;1276;72329;-89
2022/05/16 11:30:09;;;;;;;4.60;1.50;;;;;;;28.34;31.83;100833.48;107227;1274;72952;-89
2022/05/16 11:32:40;;;;;;;6.40;1.70;;;;;;;28.47;31.89;100834.27;108137;1273;60463;-89
2022/05/16 11:35:18;;;;;;;6.70;2.40;;;;;;;28.62;32.06;100835.95;108576;1274;60441;-89
2022/05/16 11:38:04;;;;;;;7.70;2.70;;;;;;;28.66;31.64;100832.14;107824;1274;74256;-89
2022/05/16 11:40:50;;;;;;;7.70;2.70;;;;;;;28.76;31.43;100832.65;107156;1274;71354;-89
2022/05/16 11:43:25;;;;;;;4.80;1.40;;;;;;;28.64;31.24;100830.14;107213;1274;74190;-88
2022/05/16 11:46:12;;;;;;;10.30;7.80;;;;;;;28.55;31.79;100832.46;106419;1274;60599;-89
2022/05/16 11:48:51;;;;;;;4.00;1.30;;;;;;;28.73;31.82;100831.66;106584;1274;60547;-89
2022/05/16 11:52:17;;;;;;;5.20;2.10;;;;;;;28.99;31.64;100822.35;106784;1274;74528;-88
2022/05/16 11:55:00;;;;;;;7.50;3.70;;;;;;;29.14;31.55;100828.09;106406;1274;71379;-88
2022/05/16 12:03:20;;;;;;;3.70;1.60;;;;;;;29.03;31.31;100821.37;106369;1274;60495;-88
2022/05/16 12:05:49;;;;;;;;;;;;;;;28.77;31.87;100827.40;106333;1274;73859;-88
2022/05/16 12:08:38;;;;;;;5.80;1.70;;;;;;;28.55;32.39;100828.13;106330;1274;72326;-88
2022/05/16 12:11:06;;;;;;;4.40;1.70;;;;;;;28.29;32.54;100828.09;106206;1276;72936;-89
2022/05/16 12:14:06;;;;;;;5.80;1.70;;;;;;;28.07;32.91;100828.11;106364;1264;60390;-89
2022/05/16 12:17:00;;;;;;;9.60;3.60;;;;;;;27.85;33.32;100826.67;108249;1276;60428;-89
2022/05/16 12:19:56;;;;;;;3.30;1.20;;;;;;;27.73;33.60;100822.04;106816;1276;75615;-89
2022/05/16 12:22:51;;;;;;;5.30;1.80;;;;;;;27.55;33.98;100823.68;105912;1279;71136;-88
2022/05/16 12:25:26;;;;;;;4.80;2.50;;;;;;;27.53;34.44;100823.16;106244;1279;71878;-89
2022/05/16 12:28:12;;;;;;;4.20;1.50;;;;;;;27.50;34.28;100819.25;106196;1279;60677;-88
2022/05/16 12:30:53;;;;;;;6.00;2.00;;;;;;;27.53;34.30;100819.61;106138;1279;61516;-89
2022/05/16 12:33:42;;;;;;;7.20;2.00;;;;;;;27.63;34.84;100818.71;106238;1277;73230;-89
2022/05/16 12:36:19;;;;;;;6.40;2.20;;;;;;;27.72;34.69;100819.16;106196;1278;71155;-88
2022/05/16 12:39:23;;;;;;;45.90;37.80;;;;;;;27.83;34.28;100816.72;106147;1277;72941;-89
2022/05/16 12:42:32;;;;;;;4.10;1.70;;;;;;;27.97;34.15;100817.32;105894;1278;61271;-89
2022/05/16 12:45:23;;;;;;;4.70;1.70;;;;;;;28.03;34.22;100813.05;106005;1278;61064;-88
2022/05/16 12:53:25;;;;;;;9.10;4.50;;;;;;;28.17;33.81;100806.79;106148;1275;71003;-89
2022/05/16 12:55:58;;;;;;;7.80;2.00;;;;;;;28.17;34.44;100804.49;106190;1276;60398;-88
2022/05/16 12:58:57;;;;;;;5.90;2.10;;;;;;;28.20;34.60;100803.33;106369;1277;60562;-89
2022/05/16 13:01:52;;;;;;;4.50;1.50;;;;;;;28.23;34.74;100799.73;106162;1276;75601;-88
2022/05/16 13:04:30;;;;;;;3.80;1.80;;;;;;;28.22;34.62;100799.64;106131;1276;71737;-89
2022/05/16 13:07:13;;;;;;;3.90;1.80;;;;;;;28.25;34.76;100800.86;106104;1276;75152;-88
2022/05/16 13:13:15;;;;;;;6.20;1.70;;;;;;;28.31;34.79;100794.45;106225;1264;171880;-87
2022/05/16 13:15:59;;;;;;;5.70;1.90;;;;;;;28.32;35.54;100792.70;105761;1281;75083;-86
2022/05/16 13:18:30;;;;;;;5.40;1.60;;;;;;;28.27;35.03;100789.27;106125;1276;72222;-86
2022/05/16 13:21:08;;;;;;;4.10;1.40;;;;;;;28.19;34.97;100790.84;106821;1277;73080;-87
2022/05/16 13:23:38;;;;;;;5.20;1.60;;;;;;;28.06;35.54;100789.12;107063;1276;61212;-87
2022/05/16 13:36:46;;;;;;;8.80;1.80;;;;;;;27.50;36.67;100784.98;107612;1268;60605;-87
2022/05/16 13:39:15;;;;;;;6.20;2.20;;;;;;;27.42;36.96;100788.91;107986;1271;63880;-88
2022/05/16 13:41:42;;;;;;;4.30;1.70;;;;;;;27.34;37.17;100788.55;107754;1279;76806;-88
2022/05/16 13:44:13;;;;;;;5.90;1.40;;;;;;;27.17;37.48;100788.98;108212;1277;72897;-88
2022/05/16 13:46:40;;;;;;;8.50;4.00;;;;;;;26.92;37.50;100788.94;108099;1275;74165;-89